Camapua, Brazil
Current Conditions -  °F | °C
As of 9:00 AM on Monday 24 Nov 2014 (Local Time) from SBCG Reporting Station
Few Clouds Few Clouds  
Wind Chill: 25°   Ceiling: Unl
Heat Index: 26°   Visibility: 6mi
Dew Point: 21°   Wind: 12mph
Humidity: 78%   Direction: 350°N
Pressure: 29.91"   Gusts: NA
Location:  19.53°S, 54.04°W
Report Text: SBCG 241200Z 35010KT 9999 FEW021 25/21 Q1013
Loading
Personal Weather Stations






























Interactive Weather Map New forecast layout! Learn more

10-Day Weather Forecast

Advertisements
Track Severe Weather on mobile